sensor_id;sensor_type;location;lat;lon;timestamp;P1;durP1;ratioP1;P2;durP2;ratioP2
50483;SDS011;36409;52.168;20.878;2022-12-16T00:01:12;97.40;;;41.77;;
50483;SDS011;36409;52.168;20.878;2022-12-16T00:03:45;110.93;;;43.87;;
50483;SDS011;36409;52.168;20.878;2022-12-16T00:06:19;102.23;;;41.70;;
50483;SDS011;36409;52.168;20.878;2022-12-16T00:08:49;91.95;;;39.90;;
50483;SDS011;36409;52.168;20.878;2022-12-16T00:11:18;93.93;;;40.23;;
50483;SDS011;36409;52.168;20.878;2022-12-16T00:13:48;93.83;;;38.63;;
50483;SDS011;36409;52.168;20.878;2022-12-16T00:16:18;91.93;;;42.00;;
50483;SDS011;36409;52.168;20.878;2022-12-16T00:18:48;100.33;;;40.30;;
50483;SDS011;36409;52.168;20.878;2022-12-16T00:21:18;91.55;;;37.65;;
50483;SDS011;36409;52.168;20.878;2022-12-16T00:23:54;87.77;;;38.23;;
50483;SDS011;36409;52.168;20.878;2022-12-16T00:26:24;85.93;;;37.77;;
50483;SDS011;36409;52.168;20.878;2022-12-16T00:28:53;91.73;;;39.33;;
50483;SDS011;36409;52.168;20.878;2022-12-16T00:31:22;87.00;;;36.90;;
50483;SDS011;36409;52.168;20.878;2022-12-16T00:33:54;83.00;;;35.33;;
50483;SDS011;36409;52.168;20.878;2022-12-16T00:36:25;87.55;;;38.78;;
50483;SDS011;36409;52.168;20.878;2022-12-16T00:38:56;92.40;;;38.77;;
50483;SDS011;36409;52.168;20.878;2022-12-16T00:41:25;84.20;;;37.70;;
50483;SDS011;36409;52.168;20.878;2022-12-16T00:43:54;86.10;;;38.27;;
50483;SDS011;36409;52.168;20.878;2022-12-16T00:46:23;89.93;;;39.43;;
50483;SDS011;36409;52.168;20.878;2022-12-16T00:48:52;91.87;;;39.27;;
50483;SDS011;36409;52.168;20.878;2022-12-16T00:51:22;86.40;;;37.87;;
50483;SDS011;36409;52.168;20.878;2022-12-16T00:53:50;89.80;;;37.97;;
50483;SDS011;36409;52.168;20.878;2022-12-16T00:56:20;88.70;;;36.63;;
50483;SDS011;36409;52.168;20.878;2022-12-16T00:58:50;82.10;;;36.90;;
50483;SDS011;36409;52.168;20.878;2022-12-16T01:01:21;76.97;;;34.87;;
50483;SDS011;36409;52.168;20.878;2022-12-16T01:03:50;83.53;;;35.07;;
50483;SDS011;36409;52.168;20.878;2022-12-16T01:06:22;76.53;;;32.93;;
50483;SDS011;36409;52.168;20.878;2022-12-16T01:08:51;83.73;;;36.13;;
50483;SDS011;36409;52.168;20.878;2022-12-16T01:11:21;79.80;;;35.30;;
50483;SDS011;36409;52.168;20.878;2022-12-16T01:13:50;86.80;;;33.60;;
50483;SDS011;36409;52.168;20.878;2022-12-16T01:16:22;76.77;;;34.20;;
50483;SDS011;36409;52.168;20.878;2022-12-16T01:18:51;80.50;;;34.97;;
50483;SDS011;36409;52.168;20.878;2022-12-16T01:21:22;81.00;;;33.80;;
50483;SDS011;36409;52.168;20.878;2022-12-16T01:23:51;82.40;;;35.20;;
50483;SDS011;36409;52.168;20.878;2022-12-16T01:26:22;79.83;;;34.13;;
50483;SDS011;36409;52.168;20.878;2022-12-16T01:28:51;71.10;;;31.13;;
50483;SDS011;36409;52.168;20.878;2022-12-16T01:31:22;78.80;;;34.10;;
50483;SDS011;36409;52.168;20.878;2022-12-16T01:33:54;68.63;;;30.60;;
50483;SDS011;36409;52.168;20.878;2022-12-16T01:36:23;75.67;;;31.07;;
50483;SDS011;36409;52.168;20.878;2022-12-16T01:38:52;70.40;;;30.37;;
50483;SDS011;36409;52.168;20.878;2022-12-16T01:41:21;78.27;;;34.33;;
50483;SDS011;36409;52.168;20.878;2022-12-16T01:43:50;73.07;;;33.27;;
50483;SDS011;36409;52.168;20.878;2022-12-16T01:46:19;73.80;;;33.03;;
50483;SDS011;36409;52.168;20.878;2022-12-16T01:48:53;74.83;;;33.03;;
50483;SDS011;36409;52.168;20.878;2022-12-16T01:51:27;69.80;;;29.30;;
50483;SDS011;36409;52.168;20.878;2022-12-16T01:54:01;61.23;;;28.07;;
50483;SDS011;36409;52.168;20.878;2022-12-16T01:56:33;72.87;;;30.27;;
50483;SDS011;36409;52.168;20.878;2022-12-16T01:59:04;69.85;;;29.90;;
50483;SDS011;36409;52.168;20.878;2022-12-16T02:01:35;59.93;;;27.93;;
50483;SDS011;36409;52.168;20.878;2022-12-16T02:04:04;63.70;;;28.73;;
50483;SDS011;36409;52.168;20.878;2022-12-16T02:06:33;70.83;;;29.53;;
50483;SDS011;36409;52.168;20.878;2022-12-16T02:09:03;67.70;;;28.70;;
50483;SDS011;36409;52.168;20.878;2022-12-16T02:11:40;75.33;;;29.90;;
50483;SDS011;36409;52.168;20.878;2022-12-16T02:14:27;70.77;;;29.50;;
50483;SDS011;36409;52.168;20.878;2022-12-16T02:17:13;70.73;;;30.33;;
50483;SDS011;36409;52.168;20.878;2022-12-16T02:19:53;59.83;;;26.53;;
50483;SDS011;36409;52.168;20.878;2022-12-16T02:22:37;68.83;;;28.83;;
50483;SDS011;36409;52.168;20.878;2022-12-16T02:25:26;65.00;;;28.87;;
50483;SDS011;36409;52.168;20.878;2022-12-16T02:28:17;60.83;;;26.07;;
50483;SDS011;36409;52.168;20.878;2022-12-16T02:31:01;65.90;;;29.67;;
50483;SDS011;36409;52.168;20.878;2022-12-16T02:33:49;61.67;;;25.37;;
50483;SDS011;36409;52.168;20.878;2022-12-16T02:36:28;66.23;;;29.43;;
50483;SDS011;36409;52.168;20.878;2022-12-16T02:39:11;70.40;;;29.10;;
50483;SDS011;36409;52.168;20.878;2022-12-16T02:41:46;69.80;;;28.77;;
50483;SDS011;36409;52.168;20.878;2022-12-16T02:44:21;71.40;;;30.33;;
50483;SDS011;36409;52.168;20.878;2022-12-16T02:47:00;68.77;;;29.13;;
50483;SDS011;36409;52.168;20.878;2022-12-16T02:52:21;65.03;;;27.67;;
50483;SDS011;36409;52.168;20.878;2022-12-16T02:54:54;65.47;;;27.03;;
50483;SDS011;36409;52.168;20.878;2022-12-16T02:57:29;58.95;;;26.30;;
50483;SDS011;36409;52.168;20.878;2022-12-16T03:00:16;67.53;;;27.20;;
50483;SDS011;36409;52.168;20.878;2022-12-16T03:02:48;68.33;;;29.10;;
50483;SDS011;36409;52.168;20.878;2022-12-16T03:05:24;67.30;;;28.77;;
50483;SDS011;36409;52.168;20.878;2022-12-16T03:10:31;64.37;;;26.00;;
50483;SDS011;36409;52.168;20.878;2022-12-16T03:13:08;65.57;;;27.20;;
50483;SDS011;36409;52.168;20.878;2022-12-16T03:18:11;55.33;;;25.37;;
50483;SDS011;36409;52.168;20.878;2022-12-16T03:20:44;55.13;;;24.93;;
50483;SDS011;36409;52.168;20.878;2022-12-16T03:23:18;58.53;;;26.47;;
50483;SDS011;36409;52.168;20.878;2022-12-16T03:26:01;47.73;;;19.87;;
50483;SDS011;36409;52.168;20.878;2022-12-16T03:28:40;65.83;;;28.03;;
50483;SDS011;36409;52.168;20.878;2022-12-16T03:31:18;64.40;;;28.20;;
50483;SDS011;36409;52.168;20.878;2022-12-16T03:33:54;65.60;;;28.07;;
50483;SDS011;36409;52.168;20.878;2022-12-16T03:36:28;71.33;;;29.60;;
50483;SDS011;36409;52.168;20.878;2022-12-16T03:39:02;72.43;;;29.37;;
50483;SDS011;36409;52.168;20.878;2022-12-16T03:41:34;64.03;;;29.03;;
50483;SDS011;36409;52.168;20.878;2022-12-16T03:44:03;73.63;;;29.40;;
50483;SDS011;36409;52.168;20.878;2022-12-16T03:46:34;66.93;;;29.93;;
50483;SDS011;36409;52.168;20.878;2022-12-16T03:49:03;68.47;;;30.27;;
50483;SDS011;36409;52.168;20.878;2022-12-16T03:51:32;63.40;;;26.67;;
50483;SDS011;36409;52.168;20.878;2022-12-16T03:54:01;75.90;;;30.63;;
50483;SDS011;36409;52.168;20.878;2022-12-16T03:56:30;67.13;;;29.90;;
50483;SDS011;36409;52.168;20.878;2022-12-16T03:59:00;66.90;;;30.10;;
50483;SDS011;36409;52.168;20.878;2022-12-16T04:01:30;64.93;;;29.07;;
50483;SDS011;36409;52.168;20.878;2022-12-16T04:03:58;67.23;;;30.33;;
50483;SDS011;36409;52.168;20.878;2022-12-16T04:06:27;73.90;;;31.03;;
50483;SDS011;36409;52.168;20.878;2022-12-16T04:08:56;69.73;;;30.13;;
50483;SDS011;36409;52.168;20.878;2022-12-16T04:11:25;68.87;;;28.00;;
50483;SDS011;36409;52.168;20.878;2022-12-16T04:14:12;65.97;;;28.03;;
50483;SDS011;36409;52.168;20.878;2022-12-16T04:17:00;76.90;;;30.87;;
50483;SDS011;36409;52.168;20.878;2022-12-16T04:20:00;64.67;;;29.43;;
50483;SDS011;36409;52.168;20.878;2022-12-16T04:22:47;61.10;;;26.47;;
50483;SDS011;36409;52.168;20.878;2022-12-16T04:25:35;60.30;;;27.80;;
50483;SDS011;36409;52.168;20.878;2022-12-16T04:28:06;69.47;;;29.03;;
50483;SDS011;36409;52.168;20.878;2022-12-16T04:30:39;55.40;;;23.87;;
50483;SDS011;36409;52.168;20.878;2022-12-16T04:33:09;63.80;;;27.17;;
50483;SDS011;36409;52.168;20.878;2022-12-16T04:36:00;66.87;;;28.53;;
50483;SDS011;36409;52.168;20.878;2022-12-16T04:38:46;67.13;;;28.47;;
50483;SDS011;36409;52.168;20.878;2022-12-16T04:41:33;67.47;;;29.50;;
50483;SDS011;36409;52.168;20.878;2022-12-16T04:44:21;75.63;;;30.63;;
50483;SDS011;36409;52.168;20.878;2022-12-16T04:47:09;63.73;;;28.27;;
50483;SDS011;36409;52.168;20.878;2022-12-16T04:49:56;74.13;;;30.00;;
50483;SDS011;36409;52.168;20.878;2022-12-16T04:52:47;67.57;;;30.60;;
50483;SDS011;36409;52.168;20.878;2022-12-16T04:55:38;68.90;;;31.37;;
50483;SDS011;36409;52.168;20.878;2022-12-16T04:58:33;67.10;;;28.67;;
50483;SDS011;36409;52.168;20.878;2022-12-16T05:01:20;65.23;;;28.17;;
50483;SDS011;36409;52.168;20.878;2022-12-16T05:04:07;65.17;;;29.27;;
50483;SDS011;36409;52.168;20.878;2022-12-16T05:06:54;69.57;;;28.47;;
50483;SDS011;36409;52.168;20.878;2022-12-16T05:09:42;72.00;;;29.70;;
50483;SDS011;36409;52.168;20.878;2022-12-16T05:12:30;55.23;;;23.90;;
50483;SDS011;36409;52.168;20.878;2022-12-16T05:15:17;72.70;;;29.87;;
50483;SDS011;36409;52.168;20.878;2022-12-16T05:18:08;62.63;;;27.50;;
50483;SDS011;36409;52.168;20.878;2022-12-16T05:21:02;65.30;;;29.97;;
50483;SDS011;36409;52.168;20.878;2022-12-16T05:23:58;68.57;;;30.27;;
50483;SDS011;36409;52.168;20.878;2022-12-16T05:26:46;68.80;;;30.13;;
50483;SDS011;36409;52.168;20.878;2022-12-16T05:29:33;62.90;;;29.03;;
50483;SDS011;36409;52.168;20.878;2022-12-16T05:32:21;65.80;;;30.30;;
50483;SDS011;36409;52.168;20.878;2022-12-16T05:35:08;68.23;;;30.37;;
50483;SDS011;36409;52.168;20.878;2022-12-16T05:37:56;65.93;;;27.43;;
50483;SDS011;36409;52.168;20.878;2022-12-16T05:40:44;69.77;;;30.33;;
50483;SDS011;36409;52.168;20.878;2022-12-16T05:43:39;81.10;;;34.50;;
50483;SDS011;36409;52.168;20.878;2022-12-16T05:46:26;74.07;;;32.40;;
50483;SDS011;36409;52.168;20.878;2022-12-16T05:49:14;71.20;;;28.03;;
50483;SDS011;36409;52.168;20.878;2022-12-16T05:52:02;69.23;;;30.00;;
50483;SDS011;36409;52.168;20.878;2022-12-16T05:54:51;71.50;;;31.60;;
50483;SDS011;36409;52.168;20.878;2022-12-16T05:57:40;73.83;;;29.60;;
50483;SDS011;36409;52.168;20.878;2022-12-16T06:00:28;88.15;;;37.20;;
50483;SDS011;36409;52.168;20.878;2022-12-16T06:03:15;79.23;;;33.07;;
50483;SDS011;36409;52.168;20.878;2022-12-16T06:06:07;62.57;;;28.00;;
50483;SDS011;36409;52.168;20.878;2022-12-16T06:08:54;82.27;;;36.37;;
50483;SDS011;36409;52.168;20.878;2022-12-16T06:11:42;67.47;;;29.70;;
50483;SDS011;36409;52.168;20.878;2022-12-16T06:14:31;67.13;;;30.13;;
50483;SDS011;36409;52.168;20.878;2022-12-16T06:17:19;72.53;;;32.77;;
50483;SDS011;36409;52.168;20.878;2022-12-16T06:20:08;71.23;;;32.43;;
50483;SDS011;36409;52.168;20.878;2022-12-16T06:22:57;82.23;;;33.70;;
50483;SDS011;36409;52.168;20.878;2022-12-16T06:25:52;82.37;;;35.48;;
50483;SDS011;36409;52.168;20.878;2022-12-16T06:28:39;83.27;;;36.10;;
50483;SDS011;36409;52.168;20.878;2022-12-16T06:31:26;74.87;;;32.43;;
50483;SDS011;36409;52.168;20.878;2022-12-16T06:34:14;73.33;;;32.57;;
50483;SDS011;36409;52.168;20.878;2022-12-16T06:37:01;78.17;;;34.33;;
50483;SDS011;36409;52.168;20.878;2022-12-16T06:39:48;81.53;;;33.43;;
50483;SDS011;36409;52.168;20.878;2022-12-16T06:42:38;85.73;;;33.80;;
50483;SDS011;36409;52.168;20.878;2022-12-16T06:45:26;74.57;;;32.97;;
50483;SDS011;36409;52.168;20.878;2022-12-16T06:48:13;81.63;;;35.47;;
50483;SDS011;36409;52.168;20.878;2022-12-16T06:51:15;82.00;;;34.55;;
50483;SDS011;36409;52.168;20.878;2022-12-16T06:54:02;84.30;;;36.80;;
50483;SDS011;36409;52.168;20.878;2022-12-16T06:56:50;81.07;;;37.07;;
50483;SDS011;36409;52.168;20.878;2022-12-16T06:59:37;64.10;;;28.20;;
50483;SDS011;36409;52.168;20.878;2022-12-16T07:02:23;81.87;;;35.17;;
50483;SDS011;36409;52.168;20.878;2022-12-16T07:05:11;79.93;;;34.77;;
50483;SDS011;36409;52.168;20.878;2022-12-16T07:07:58;73.27;;;33.07;;
50483;SDS011;36409;52.168;20.878;2022-12-16T07:10:46;76.87;;;33.40;;
50483;SDS011;36409;52.168;20.878;2022-12-16T07:13:44;82.63;;;35.50;;
50483;SDS011;36409;52.168;20.878;2022-12-16T07:16:32;75.37;;;32.37;;
50483;SDS011;36409;52.168;20.878;2022-12-16T07:19:20;78.73;;;33.40;;
50483;SDS011;36409;52.168;20.878;2022-12-16T07:22:08;83.17;;;34.30;;
50483;SDS011;36409;52.168;20.878;2022-12-16T07:24:56;82.63;;;33.07;;
50483;SDS011;36409;52.168;20.878;2022-12-16T07:27:45;76.70;;;33.53;;
50483;SDS011;36409;52.168;20.878;2022-12-16T07:30:41;82.40;;;33.83;;
50483;SDS011;36409;52.168;20.878;2022-12-16T07:33:29;78.93;;;32.60;;
50483;SDS011;36409;52.168;20.878;2022-12-16T07:36:16;74.40;;;32.03;;
50483;SDS011;36409;52.168;20.878;2022-12-16T07:39:06;72.27;;;30.30;;
50483;SDS011;36409;52.168;20.878;2022-12-16T07:41:54;73.47;;;31.23;;
50483;SDS011;36409;52.168;20.878;2022-12-16T07:44:42;73.37;;;31.27;;
50483;SDS011;36409;52.168;20.878;2022-12-16T07:47:29;70.83;;;27.57;;
50483;SDS011;36409;52.168;20.878;2022-12-16T07:50:16;91.07;;;37.90;;
50483;SDS011;36409;52.168;20.878;2022-12-16T07:53:05;77.10;;;35.07;;
50483;SDS011;36409;52.168;20.878;2022-12-16T07:55:58;72.67;;;31.83;;
50483;SDS011;36409;52.168;20.878;2022-12-16T07:58:45;79.60;;;34.50;;
50483;SDS011;36409;52.168;20.878;2022-12-16T08:01:32;100.47;;;43.03;;
50483;SDS011;36409;52.168;20.878;2022-12-16T08:04:24;87.93;;;38.10;;
50483;SDS011;36409;52.168;20.878;2022-12-16T08:07:12;115.67;;;48.27;;
50483;SDS011;36409;52.168;20.878;2022-12-16T08:09:59;93.27;;;39.80;;
50483;SDS011;36409;52.168;20.878;2022-12-16T08:12:46;80.10;;;34.77;;
50483;SDS011;36409;52.168;20.878;2022-12-16T08:15:36;88.70;;;37.07;;
50483;SDS011;36409;52.168;20.878;2022-12-16T08:18:24;82.77;;;34.80;;
50483;SDS011;36409;52.168;20.878;2022-12-16T08:21:14;82.47;;;35.47;;
50483;SDS011;36409;52.168;20.878;2022-12-16T08:24:02;82.47;;;36.50;;
50483;SDS011;36409;52.168;20.878;2022-12-16T08:26:52;73.50;;;31.97;;
50483;SDS011;36409;52.168;20.878;2022-12-16T08:29:40;78.33;;;31.37;;
50483;SDS011;36409;52.168;20.878;2022-12-16T08:32:27;86.30;;;36.83;;
50483;SDS011;36409;52.168;20.878;2022-12-16T08:35:14;85.67;;;37.40;;
50483;SDS011;36409;52.168;20.878;2022-12-16T08:38:01;71.03;;;29.63;;
50483;SDS011;36409;52.168;20.878;2022-12-16T08:40:48;88.53;;;37.03;;
50483;SDS011;36409;52.168;20.878;2022-12-16T08:43:37;88.33;;;34.57;;
50483;SDS011;36409;52.168;20.878;2022-12-16T08:46:24;76.47;;;32.93;;
50483;SDS011;36409;52.168;20.878;2022-12-16T08:49:12;79.83;;;33.83;;
50483;SDS011;36409;52.168;20.878;2022-12-16T08:51:59;82.27;;;34.93;;
50483;SDS011;36409;52.168;20.878;2022-12-16T08:54:47;77.77;;;34.53;;
50483;SDS011;36409;52.168;20.878;2022-12-16T08:57:56;80.40;;;34.13;;
50483;SDS011;36409;52.168;20.878;2022-12-16T09:00:44;80.40;;;34.53;;
50483;SDS011;36409;52.168;20.878;2022-12-16T09:03:34;81.37;;;32.10;;
50483;SDS011;36409;52.168;20.878;2022-12-16T09:06:23;83.53;;;36.37;;
50483;SDS011;36409;52.168;20.878;2022-12-16T09:09:25;82.13;;;37.40;;
50483;SDS011;36409;52.168;20.878;2022-12-16T09:12:12;67.63;;;29.63;;
50483;SDS011;36409;52.168;20.878;2022-12-16T09:15:14;82.00;;;34.90;;
50483;SDS011;36409;52.168;20.878;2022-12-16T09:18:05;72.80;;;33.37;;
50483;SDS011;36409;52.168;20.878;2022-12-16T09:20:52;78.70;;;33.57;;
50483;SDS011;36409;52.168;20.878;2022-12-16T09:23:39;71.57;;;31.70;;
50483;SDS011;36409;52.168;20.878;2022-12-16T09:26:27;67.87;;;30.20;;
50483;SDS011;36409;52.168;20.878;2022-12-16T09:29:15;84.43;;;37.03;;
50483;SDS011;36409;52.168;20.878;2022-12-16T09:32:13;80.10;;;34.60;;
50483;SDS011;36409;52.168;20.878;2022-12-16T09:35:00;85.97;;;33.27;;
50483;SDS011;36409;52.168;20.878;2022-12-16T09:37:53;62.63;;;28.47;;
50483;SDS011;36409;52.168;20.878;2022-12-16T09:40:41;76.33;;;35.67;;
50483;SDS011;36409;52.168;20.878;2022-12-16T09:43:45;79.77;;;33.27;;
50483;SDS011;36409;52.168;20.878;2022-12-16T09:46:43;85.13;;;37.20;;
50483;SDS011;36409;52.168;20.878;2022-12-16T09:49:52;84.50;;;36.03;;
50483;SDS011;36409;52.168;20.878;2022-12-16T09:52:41;76.67;;;34.83;;
50483;SDS011;36409;52.168;20.878;2022-12-16T09:55:32;72.13;;;33.00;;
50483;SDS011;36409;52.168;20.878;2022-12-16T09:58:25;70.63;;;33.47;;
50483;SDS011;36409;52.168;20.878;2022-12-16T10:01:16;73.73;;;29.87;;
50483;SDS011;36409;52.168;20.878;2022-12-16T10:04:05;64.90;;;30.47;;
50483;SDS011;36409;52.168;20.878;2022-12-16T10:06:54;68.57;;;30.27;;
50483;SDS011;36409;52.168;20.878;2022-12-16T10:09:58;74.17;;;34.13;;
50483;SDS011;36409;52.168;20.878;2022-12-16T10:12:55;60.77;;;27.10;;
50483;SDS011;36409;52.168;20.878;2022-12-16T10:15:50;84.90;;;38.40;;
50483;SDS011;36409;52.168;20.878;2022-12-16T10:18:44;83.63;;;37.07;;
50483;SDS011;36409;52.168;20.878;2022-12-16T10:21:40;79.17;;;34.93;;
50483;SDS011;36409;52.168;20.878;2022-12-16T10:24:37;76.20;;;34.13;;
50483;SDS011;36409;52.168;20.878;2022-12-16T10:27:33;72.17;;;31.87;;
50483;SDS011;36409;52.168;20.878;2022-12-16T10:30:29;74.70;;;33.37;;
50483;SDS011;36409;52.168;20.878;2022-12-16T10:33:18;61.80;;;26.13;;
50483;SDS011;36409;52.168;20.878;2022-12-16T10:36:15;66.87;;;32.33;;
50483;SDS011;36409;52.168;20.878;2022-12-16T10:39:10;76.80;;;37.23;;
50483;SDS011;36409;52.168;20.878;2022-12-16T10:42:11;71.60;;;32.63;;
50483;SDS011;36409;52.168;20.878;2022-12-16T10:45:07;73.07;;;33.20;;
50483;SDS011;36409;52.168;20.878;2022-12-16T10:48:07;94.63;;;36.77;;
50483;SDS011;36409;52.168;20.878;2022-12-16T10:50:55;69.30;;;34.13;;
50483;SDS011;36409;52.168;20.878;2022-12-16T10:53:45;72.30;;;34.20;;
50483;SDS011;36409;52.168;20.878;2022-12-16T10:56:39;83.30;;;36.73;;
50483;SDS011;36409;52.168;20.878;2022-12-16T10:59:36;80.43;;;35.37;;
50483;SDS011;36409;52.168;20.878;2022-12-16T11:02:26;81.73;;;36.87;;
50483;SDS011;36409;52.168;20.878;2022-12-16T11:05:28;79.13;;;37.90;;
50483;SDS011;36409;52.168;20.878;2022-12-16T11:08:22;78.67;;;36.33;;
50483;SDS011;36409;52.168;20.878;2022-12-16T11:11:20;69.30;;;31.33;;
50483;SDS011;36409;52.168;20.878;2022-12-16T11:14:16;59.27;;;29.93;;
50483;SDS011;36409;52.168;20.878;2022-12-16T11:17:28;68.97;;;31.60;;
50483;SDS011;36409;52.168;20.878;2022-12-16T11:20:17;76.27;;;32.20;;
50483;SDS011;36409;52.168;20.878;2022-12-16T11:23:07;71.33;;;34.30;;
50483;SDS011;36409;52.168;20.878;2022-12-16T11:26:07;74.10;;;34.23;;
50483;SDS011;36409;52.168;20.878;2022-12-16T11:29:07;76.33;;;35.70;;
50483;SDS011;36409;52.168;20.878;2022-12-16T11:32:04;92.30;;;39.93;;
50483;SDS011;36409;52.168;20.878;2022-12-16T11:35:01;93.87;;;42.47;;
50483;SDS011;36409;52.168;20.878;2022-12-16T11:37:51;97.00;;;41.40;;
50483;SDS011;36409;52.168;20.878;2022-12-16T11:40:40;81.80;;;38.40;;
50483;SDS011;36409;52.168;20.878;2022-12-16T11:43:28;79.83;;;36.27;;
50483;SDS011;36409;52.168;20.878;2022-12-16T11:46:19;81.67;;;37.40;;
50483;SDS011;36409;52.168;20.878;2022-12-16T11:49:13;75.50;;;35.27;;
50483;SDS011;36409;52.168;20.878;2022-12-16T11:52:07;73.67;;;34.43;;
50483;SDS011;36409;52.168;20.878;2022-12-16T11:55:12;74.70;;;33.77;;
50483;SDS011;36409;52.168;20.878;2022-12-16T11:58:28;71.43;;;30.47;;
50483;SDS011;36409;52.168;20.878;2022-12-16T12:04:12;71.53;;;31.87;;
50483;SDS011;36409;52.168;20.878;2022-12-16T12:07:12;65.30;;;30.30;;
50483;SDS011;36409;52.168;20.878;2022-12-16T12:10:25;72.80;;;32.80;;
50483;SDS011;36409;52.168;20.878;2022-12-16T12:13:29;67.33;;;33.17;;
50483;SDS011;36409;52.168;20.878;2022-12-16T12:16:30;66.67;;;31.07;;
50483;SDS011;36409;52.168;20.878;2022-12-16T12:19:28;63.63;;;30.83;;
50483;SDS011;36409;52.168;20.878;2022-12-16T12:22:27;52.63;;;24.47;;
50483;SDS011;36409;52.168;20.878;2022-12-16T12:25:23;61.20;;;28.00;;
50483;SDS011;36409;52.168;20.878;2022-12-16T12:28:21;63.43;;;31.47;;
50483;SDS011;36409;52.168;20.878;2022-12-16T12:31:19;65.95;;;28.45;;
50483;SDS011;36409;52.168;20.878;2022-12-16T12:34:17;58.57;;;28.47;;
50483;SDS011;36409;52.168;20.878;2022-12-16T12:40:07;74.40;;;32.17;;
50483;SDS011;36409;52.168;20.878;2022-12-16T12:43:08;58.93;;;27.90;;
50483;SDS011;36409;52.168;20.878;2022-12-16T12:46:11;74.07;;;33.87;;
50483;SDS011;36409;52.168;20.878;2022-12-16T12:49:07;67.83;;;31.23;;
50483;SDS011;36409;52.168;20.878;2022-12-16T12:52:04;62.70;;;28.83;;
50483;SDS011;36409;52.168;20.878;2022-12-16T12:55:02;69.10;;;30.60;;
50483;SDS011;36409;52.168;20.878;2022-12-16T12:57:56;64.33;;;30.97;;
50483;SDS011;36409;52.168;20.878;2022-12-16T13:00:48;66.13;;;30.83;;
50483;SDS011;36409;52.168;20.878;2022-12-16T13:03:41;66.50;;;32.33;;
50483;SDS011;36409;52.168;20.878;2022-12-16T13:06:33;62.80;;;29.63;;
50483;SDS011;36409;52.168;20.878;2022-12-16T13:09:24;70.40;;;33.47;;
50483;SDS011;36409;52.168;20.878;2022-12-16T13:12:26;71.20;;;34.90;;
50483;SDS011;36409;52.168;20.878;2022-12-16T13:15:19;60.95;;;28.70;;
50483;SDS011;36409;52.168;20.878;2022-12-16T13:18:23;77.23;;;34.13;;
50483;SDS011;36409;52.168;20.878;2022-12-16T13:24:36;60.17;;;28.30;;
50483;SDS011;36409;52.168;20.878;2022-12-16T13:27:26;63.50;;;31.63;;
50483;SDS011;36409;52.168;20.878;2022-12-16T13:30:22;61.93;;;30.00;;
50483;SDS011;36409;52.168;20.878;2022-12-16T13:36:33;64.57;;;29.77;;
50483;SDS011;36409;52.168;20.878;2022-12-16T13:39:22;64.67;;;30.47;;
50483;SDS011;36409;52.168;20.878;2022-12-16T13:45:41;61.87;;;29.37;;
50483;SDS011;36409;52.168;20.878;2022-12-16T13:48:49;62.30;;;31.30;;
50483;SDS011;36409;52.168;20.878;2022-12-16T13:51:57;63.50;;;30.57;;
50483;SDS011;36409;52.168;20.878;2022-12-16T13:54:50;67.27;;;31.60;;
50483;SDS011;36409;52.168;20.878;2022-12-16T13:57:51;62.77;;;29.63;;
50483;SDS011;36409;52.168;20.878;2022-12-16T14:00:44;69.03;;;32.43;;
50483;SDS011;36409;52.168;20.878;2022-12-16T14:03:44;63.83;;;28.83;;
50483;SDS011;36409;52.168;20.878;2022-12-16T14:06:35;69.90;;;32.37;;
50483;SDS011;36409;52.168;20.878;2022-12-16T14:09:25;57.93;;;28.40;;
50483;SDS011;36409;52.168;20.878;2022-12-16T14:12:37;52.43;;;25.17;;
50483;SDS011;36409;52.168;20.878;2022-12-16T14:15:34;67.40;;;31.17;;
50483;SDS011;36409;52.168;20.878;2022-12-16T14:18:36;65.43;;;28.73;;
50483;SDS011;36409;52.168;20.878;2022-12-16T14:21:31;74.63;;;33.80;;
50483;SDS011;36409;52.168;20.878;2022-12-16T14:24:26;67.20;;;30.30;;
50483;SDS011;36409;52.168;20.878;2022-12-16T14:27:16;72.90;;;34.00;;
50483;SDS011;36409;52.168;20.878;2022-12-16T14:30:15;73.30;;;33.60;;
50483;SDS011;36409;52.168;20.878;2022-12-16T14:33:20;85.87;;;36.47;;
50483;SDS011;36409;52.168;20.878;2022-12-16T14:36:18;72.65;;;33.13;;
50483;SDS011;36409;52.168;20.878;2022-12-16T14:39:11;67.13;;;30.87;;
50483;SDS011;36409;52.168;20.878;2022-12-16T14:45:14;62.10;;;29.17;;
50483;SDS011;36409;52.168;20.878;2022-12-16T14:51:24;76.17;;;34.33;;
50483;SDS011;36409;52.168;20.878;2022-12-16T14:54:17;71.00;;;32.73;;
50483;SDS011;36409;52.168;20.878;2022-12-16T14:57:11;86.07;;;36.07;;
50483;SDS011;36409;52.168;20.878;2022-12-16T15:00:03;72.70;;;33.53;;
50483;SDS011;36409;52.168;20.878;2022-12-16T15:03:02;70.27;;;32.17;;
50483;SDS011;36409;52.168;20.878;2022-12-16T15:06:00;80.17;;;37.07;;
50483;SDS011;36409;52.168;20.878;2022-12-16T15:08:49;76.70;;;34.20;;
50483;SDS011;36409;52.168;20.878;2022-12-16T15:11:40;69.30;;;32.47;;
50483;SDS011;36409;52.168;20.878;2022-12-16T15:14:30;75.77;;;31.57;;
50483;SDS011;36409;52.168;20.878;2022-12-16T15:17:21;67.17;;;28.70;;
50483;SDS011;36409;52.168;20.878;2022-12-16T15:20:14;74.47;;;33.07;;
50483;SDS011;36409;52.168;20.878;2022-12-16T15:23:09;61.20;;;30.02;;
50483;SDS011;36409;52.168;20.878;2022-12-16T15:26:02;75.73;;;34.50;;
50483;SDS011;36409;52.168;20.878;2022-12-16T15:28:50;67.40;;;29.57;;
50483;SDS011;36409;52.168;20.878;2022-12-16T15:31:39;67.03;;;30.33;;
50483;SDS011;36409;52.168;20.878;2022-12-16T15:34:31;58.77;;;27.57;;
50483;SDS011;36409;52.168;20.878;2022-12-16T15:37:35;66.70;;;30.03;;
50483;SDS011;36409;52.168;20.878;2022-12-16T15:40:32;66.80;;;30.17;;
50483;SDS011;36409;52.168;20.878;2022-12-16T15:43:25;56.40;;;25.73;;
50483;SDS011;36409;52.168;20.878;2022-12-16T15:46:16;66.40;;;31.17;;
50483;SDS011;36409;52.168;20.878;2022-12-16T15:49:14;72.60;;;31.23;;
50483;SDS011;36409;52.168;20.878;2022-12-16T15:55:22;52.17;;;24.57;;
50483;SDS011;36409;52.168;20.878;2022-12-16T15:58:17;70.00;;;30.60;;
50483;SDS011;36409;52.168;20.878;2022-12-16T16:01:08;62.37;;;28.30;;
50483;SDS011;36409;52.168;20.878;2022-12-16T16:03:58;61.50;;;28.17;;
50483;SDS011;36409;52.168;20.878;2022-12-16T16:06:59;58.17;;;26.53;;
50483;SDS011;36409;52.168;20.878;2022-12-16T16:09:47;57.87;;;26.27;;
50483;SDS011;36409;52.168;20.878;2022-12-16T16:12:37;69.40;;;31.20;;
50483;SDS011;36409;52.168;20.878;2022-12-16T16:15:25;65.97;;;30.27;;
50483;SDS011;36409;52.168;20.878;2022-12-16T16:18:13;77.50;;;34.83;;
50483;SDS011;36409;52.168;20.878;2022-12-16T16:21:00;68.83;;;32.40;;
50483;SDS011;36409;52.168;20.878;2022-12-16T16:23:50;65.27;;;29.87;;
50483;SDS011;36409;52.168;20.878;2022-12-16T16:26:37;59.17;;;28.67;;
50483;SDS011;36409;52.168;20.878;2022-12-16T16:29:42;58.20;;;28.20;;
50483;SDS011;36409;52.168;20.878;2022-12-16T16:32:30;53.33;;;25.37;;
50483;SDS011;36409;52.168;20.878;2022-12-16T16:35:19;56.00;;;23.75;;